Time;durP1;ratioP1;P1;durP2;ratioP2;P2;SDS_P1;SDS_P2;PMS_P1;PMS_P2;Temp;Humidity;BMP_temperature;BMP_pressure;BME280_temperature;BME280_humidity;BME280_pressure;Samples;Min_cycle;Max_cycle;Signal;HPM_P1;HPM_P2
2021/04/23 00:00:42;;;;;;;63.40;39.25;;;;;;;8.81;89.55;99233.13;3483484;28;20076;-53
2021/04/23 00:02:23;;;;;;;63.05;37.80;;;;;;;8.81;89.60;99230.53;3479000;28;20045;-57
2021/04/23 00:04:06;;;;;;;62.42;38.22;;;;;;;8.82;89.79;99240.91;3483057;28;20540;-48
2021/04/23 00:05:50;;;;;;;64.57;38.60;;;;;;;8.83;89.64;99239.19;3480676;28;20060;-59
2021/04/23 00:07:31;;;;;;;74.22;44.88;;;;;;;8.83;89.90;99234.88;3480556;28;20045;-49
2021/04/23 00:09:18;;;;;;;64.57;37.53;;;;;;;8.81;89.58;99239.16;3482118;28;20045;-60
2021/04/23 00:10:59;;;;;;;68.47;40.28;;;;;;;8.82;89.71;99234.84;3479958;28;20041;-50
2021/04/23 00:12:41;;;;;;;66.35;40.85;;;;;;;8.82;89.30;99240.03;3483780;28;20059;-60
2021/04/23 00:14:27;;;;;;;83.95;47.95;;;;;;;8.81;89.58;99249.50;3478587;28;20055;-49
2021/04/23 00:16:11;;;;;;;82.47;47.05;;;;;;;8.79;89.89;99246.91;3480150;28;20084;-59
2021/04/23 00:17:52;;;;;;;;;;;;;;;8.77;89.92;99250.31;3482671;28;20056;-58
2021/04/23 00:19:34;;;;;;;80.72;45.78;;;;;;;8.76;89.77;99251.16;3480470;28;19925;-48
2021/04/23 00:21:19;;;;;;;81.70;46.10;;;;;;;8.76;90.18;99251.16;3483212;28;21040;-48
2021/04/23 00:23:04;;;;;;;80.30;45.92;;;;;;;8.76;90.15;99248.56;3478790;28;20052;-57
2021/04/23 00:24:46;;;;;;;88.55;47.03;;;;;;;8.75;90.35;99249.44;3481828;28;20045;-57
2021/04/23 00:26:28;;;;;;;83.88;46.40;;;;;;;8.73;90.64;99253.69;3480823;28;20541;-47
2021/04/23 00:28:13;;;;;;;87.43;48.40;;;;;;;8.73;90.66;99251.09;3479427;28;20071;-58
2021/04/23 00:29:54;;;;;;;79.57;46.13;;;;;;;8.72;91.06;99255.41;3483475;28;20049;-58
2021/04/23 00:31:36;;;;;;;87.55;48.88;;;;;;;8.72;91.16;99258.00;3480292;28;20514;-59
2021/04/23 00:33:20;;;;;;;86.65;49.83;;;;;;;8.71;91.18;99261.44;3482785;28;20055;-50
2021/04/23 00:35:01;;;;;;;84.03;49.25;;;;;;;8.69;91.36;99268.28;3480957;28;20056;-49
2021/04/23 00:36:43;;;;;;;83.60;48.28;;;;;;;8.69;91.88;99280.34;3479616;28;20565;-48
2021/04/23 00:38:26;;;;;;;85.40;47.47;;;;;;;8.68;92.18;99288.97;3482008;28;20084;-49
2021/04/23 00:40:09;;;;;;;72.15;39.70;;;;;;;8.64;91.64;99285.47;3478094;28;20072;-59
2021/04/23 00:41:53;;;;;;;66.60;41.13;;;;;;;8.65;91.77;99305.31;3483207;28;20055;-48
2021/04/23 00:43:38;;;;;;;64.78;36.33;;;;;;;8.64;91.97;99298.41;3478583;28;20048;-50
2021/04/23 00:45:25;;;;;;;63.65;39.28;;;;;;;8.63;92.10;99301.84;3480979;28;20053;-59
2021/04/23 00:47:06;;;;;;;64.70;38.33;;;;;;;8.63;92.09;99304.41;3481408;28;20079;-59
2021/04/23 00:48:49;;;;;;;63.92;38.65;;;;;;;8.64;92.16;99306.16;3480147;28;20049;-59
2021/04/23 00:50:36;;;;;;;51.50;33.50;;;;;;;8.63;92.19;99298.38;3482858;28;20064;-59
2021/04/23 00:52:18;;;;;;;48.53;29.58;;;;;;;8.61;91.71;99295.78;3479118;28;20425;-58
2021/04/23 00:54:01;;;;;;;60.97;37.30;;;;;;;8.62;91.51;99294.91;3482616;28;20045;-58
2021/04/23 00:55:42;;;;;;;62.53;37.65;;;;;;;8.62;92.23;99292.31;3479912;28;20518;-57
2021/04/23 00:57:23;;;;;;;58.50;35.10;;;;;;;8.61;92.23;99300.94;3480786;28;20056;-58
2021/04/23 00:59:07;;;;;;;40.50;25.60;;;;;;;8.60;92.03;99296.59;3483186;28;20052;-58
2021/04/23 01:00:53;;;;;;;61.35;37.28;;;;;;;8.58;92.21;99288.81;3478208;28;20496;-48
2021/04/23 01:02:34;;;;;;;57.28;36.53;;;;;;;8.59;92.38;99287.13;3482999;28;20045;-48
2021/04/23 01:04:18;;;;;;;51.17;31.40;;;;;;;8.57;92.16;99281.94;3478297;28;20045;-49
2021/04/23 01:06:03;;;;;;;43.63;26.20;;;;;;;8.56;92.05;99282.75;3481587;28;20122;-48
2021/04/23 01:07:46;;;;;;;63.50;34.78;;;;;;;8.57;92.04;99286.22;3479962;28;20106;-59
2021/04/23 01:09:29;;;;;;;53.85;34.28;;;;;;;8.57;92.06;99281.03;3479724;28;20428;-60
2021/04/23 01:11:13;;;;;;;55.90;35.17;;;;;;;8.57;92.33;99281.94;3481910;28;20064;-59
2021/04/23 01:12:55;;;;;;;55.97;33.15;;;;;;;8.55;92.13;99281.03;3477336;28;20484;-59
2021/04/23 01:14:36;;;;;;;47.28;28.08;;;;;;;8.55;91.97;99281.03;3482317;28;20632;-48
2021/04/23 01:16:21;;;;;;;46.92;29.40;;;;;;;8.57;92.02;99283.63;3477458;28;20073;-49
2021/04/23 01:18:03;;;;;;;34.70;21.63;;;;;;;8.56;91.57;99284.50;3479326;28;20504;-48
2021/04/23 01:19:45;;;;;;;35.35;20.98;;;;;;;8.56;91.43;99284.50;3480872;28;20053;-49
2021/04/23 01:21:30;;;;;;;37.47;21.83;;;;;;;8.57;91.40;99273.28;3480225;28;20045;-60
2021/04/23 01:23:12;;;;;;;37.47;22.67;;;;;;;8.58;91.65;99283.66;3482625;28;20056;-48
2021/04/23 01:24:53;;;;;;;28.42;18.52;;;;;;;8.59;91.67;99287.13;3478971;28;20041;-49
2021/04/23 01:26:37;;;;;;;34.03;20.70;;;;;;;8.60;91.51;99284.53;3482126;28;20506;-48
2021/04/23 01:28:19;;;;;;;32.45;19.90;;;;;;;8.62;91.46;99279.41;3479142;28;20040;-48
2021/04/23 01:30:00;;;;;;;26.45;17.17;;;;;;;8.62;91.43;99276.81;3480792;28;20433;-59
2021/04/23 01:31:43;;;;;;;27.33;17.40;;;;;;;8.63;91.40;99278.56;3480087;28;20098;-59
2021/04/23 01:33:25;;;;;;;23.98;16.23;;;;;;;8.64;91.43;99279.41;3477813;28;20045;-50
2021/04/23 01:35:09;;;;;;;27.52;17.27;;;;;;;8.65;91.26;99281.19;3482313;28;20052;-50
2021/04/23 01:36:52;;;;;;;;;;;;;;;8.65;91.28;99273.41;3478225;28;20060;-60
2021/04/23 01:38:35;;;;;;;27.00;16.58;;;;;;;8.65;91.35;99276.88;3482375;28;19925;-48
2021/04/23 01:40:18;;;;;;;29.38;18.13;;;;;;;8.64;91.45;99277.72;3478241;28;20083;-49
2021/04/23 01:42:00;;;;;;;23.02;14.70;;;;;;;8.64;91.57;99280.31;3479719;28;20560;-60
2021/04/23 01:43:43;;;;;;;30.42;19.55;;;;;;;8.63;91.37;99286.31;3482432;28;20049;-51
2021/04/23 01:45:25;;;;;;;28.75;18.85;;;;;;;8.63;91.44;99275.97;3477646;28;20041;-48
2021/04/23 01:47:08;;;;;;;30.38;19.67;;;;;;;8.63;91.54;99286.31;3482753;28;20048;-48
2021/04/23 01:48:49;;;;;;;29.50;19.50;;;;;;;8.62;91.31;99276.81;3478710;28;20055;-49
2021/04/23 01:50:32;;;;;;;23.27;17.05;;;;;;;8.61;91.44;99282.84;3478448;28;20088;-60
2021/04/23 01:52:16;;;;;;;28.40;19.00;;;;;;;8.63;91.74;99290.63;3483049;28;20106;-60
2021/04/23 01:53:57;;;;;;;25.52;17.63;;;;;;;8.63;91.57;99283.72;3480999;28;20369;-59
2021/04/23 01:55:39;;;;;;;28.02;18.00;;;;;;;8.63;91.50;99291.50;3485467;28;20048;-48
2021/04/23 01:57:21;;;;;;;26.92;18.05;;;;;;;8.64;91.19;99295.81;3480029;28;20053;-59
2021/04/23 01:59:03;;;;;;;28.05;18.33;;;;;;;8.65;91.47;99294.09;3483995;28;20080;-48
2021/04/23 02:00:48;;;;;;;27.35;17.75;;;;;;;8.63;91.66;99299.25;3481315;28;20065;-55
2021/04/23 02:02:29;;;;;;;27.40;16.48;;;;;;;8.64;91.83;99305.28;3481525;28;20524;-48
2021/04/23 02:04:12;;;;;;;22.38;14.18;;;;;;;8.65;91.57;99310.47;3483171;28;20052;-60
2021/04/23 02:05:55;;;;;;;26.50;16.60;;;;;;;8.66;91.61;99311.34;3480994;28;20076;-47
2021/04/23 02:07:37;;;;;;;27.92;17.20;;;;;;;8.65;92.05;99307.88;3484481;28;20049;-60
2021/04/23 02:09:20;;;;;;;30.88;20.80;;;;;;;8.66;91.97;99306.16;3480038;28;20051;-59
2021/04/23 02:11:08;;;;;;;28.27;18.73;;;;;;;8.67;91.60;99315.69;3483989;28;20586;-49
2021/04/23 02:12:49;;;;;;;32.83;20.70;;;;;;;8.67;92.08;99313.09;3481712;28;20099;-48
2021/04/23 02:14:31;;;;;;;25.20;17.13;;;;;;;8.67;92.23;99302.75;3479174;28;20049;-48
2021/04/23 02:16:14;;;;;;;29.85;19.58;;;;;;;8.67;92.16;99316.53;3470544;28;20081;-59
2021/04/23 02:17:57;;;;;;;30.60;18.90;;;;;;;8.68;92.30;99322.59;3475267;28;20053;-59
2021/04/23 02:19:38;;;;;;;26.20;16.92;;;;;;;8.63;90.40;99321.66;3485075;28;20053;-59
2021/04/23 02:21:20;;;;;;;21.25;11.57;;;;;;;8.56;88.92;99333.59;3479873;28;20056;-48
2021/04/23 02:23:06;;;;;;;13.40;9.50;;;;;;;8.38;84.51;99331.59;3481557;28;20048;-47
2021/04/23 02:24:47;;;;;;;18.30;9.77;;;;;;;8.27;84.20;99330.53;3481596;28;20143;-48
2021/04/23 02:26:28;;;;;;;11.25;8.55;;;;;;;8.15;83.35;99337.22;3479378;28;20080;-47
2021/04/23 02:28:10;;;;;;;11.77;7.28;;;;;;;8.06;83.03;99337.06;3483953;28;20052;-47
2021/04/23 02:29:52;;;;;;;11.25;7.53;;;;;;;7.95;81.82;99338.56;3480617;28;20084;-48
2021/04/23 02:31:36;;;;;;;9.65;6.28;;;;;;;7.87;82.47;99353.91;3484178;28;20498;-58
2021/04/23 02:33:20;;;;;;;9.82;6.90;;;;;;;7.78;81.32;99353.75;3479591;28;20045;-58
2021/04/23 02:35:02;;;;;;;12.63;6.85;;;;;;;7.71;80.83;99364.78;3480534;28;20110;-58
2021/04/23 02:36:44;;;;;;;9.10;6.72;;;;;;;7.64;81.14;99364.66;3482210;28;20057;-58
2021/04/23 02:38:28;;;;;;;9.48;6.50;;;;;;;7.59;81.73;99368.84;3480658;28;20050;-58
2021/04/23 02:40:13;;;;;;;9.23;6.40;;;;;;;7.55;82.15;99372.22;3483837;28;20056;-58
2021/04/23 02:41:55;;;;;;;10.57;6.00;;;;;;;7.51;81.52;99372.13;3480293;28;20598;-58
2021/04/23 02:43:40;;;;;;;8.27;6.45;;;;;;;7.43;80.26;99375.41;3482631;28;20622;-46
2021/04/23 02:45:24;;;;;;;10.80;6.97;;;;;;;7.39;80.74;99383.06;3472869;28;20049;-47
2021/04/23 02:47:06;;;;;;;13.02;7.40;;;;;;;7.36;80.99;99388.16;3470751;28;20061;-47
2021/04/23 02:48:48;;;;;;;12.73;7.30;;;;;;;7.33;81.60;99386.34;3483912;28;20049;-47
2021/04/23 02:50:37;;;;;;;11.73;6.90;;;;;;;7.30;81.35;99399.22;3480617;28;20142;-46
2021/04/23 02:52:18;;;;;;;11.30;6.35;;;;;;;7.23;80.26;99393.03;3483721;28;20057;-47
2021/04/23 02:54:01;;;;;;;14.25;6.55;;;;;;;7.18;80.74;99394.63;3478908;28;20861;-49
2021/04/23 02:55:43;;;;;;;9.32;6.45;;;;;;;7.14;80.61;99399.69;3481660;28;20052;-48
2021/04/23 02:57:28;;;;;;;11.52;7.18;;;;;;;7.12;81.32;99407.38;3482298;28;20143;-46
2021/04/23 02:59:10;;;;;;;13.50;6.47;;;;;;;7.10;81.36;99416.78;3479065;28;20048;-57
2021/04/23 03:00:54;;;;;;;9.27;6.63;;;;;;;7.07;81.10;99425.34;3483543;28;20102;-57
2021/04/23 03:02:35;;;;;;;11.70;6.95;;;;;;;7.03;80.68;99420.06;3479087;28;20473;-47
2021/04/23 03:04:17;;;;;;;9.90;5.63;;;;;;;7.00;80.48;99425.16;3482976;28;20052;-46
2021/04/23 03:05:59;;;;;;;10.50;6.47;;;;;;;6.93;79.94;99439.59;3480737;28;20056;-57
2021/04/23 03:07:40;;;;;;;10.15;5.80;;;;;;;6.84;80.31;99440.22;3481378;28;20076;-58
2021/04/23 03:09:22;;;;;;;12.82;6.32;;;;;;;6.74;80.59;99437.38;3482496;28;20421;-57
2021/04/23 03:11:10;;;;;;;11.27;6.13;;;;;;;6.69;81.26;99445.84;3477575;28;20103;-57
2021/04/23 03:12:52;;;;;;;11.18;7.38;;;;;;;6.64;82.20;99434.56;3483541;28;20061;-57
2021/04/23 03:14:33;;;;;;;9.48;5.93;;;;;;;6.60;81.11;99437.91;3478767;28;20076;-57
2021/04/23 03:16:17;;;;;;;10.00;6.68;;;;;;;6.58;82.29;99439.56;3483024;28;20516;-46
2021/04/23 03:17:58;;;;;;;10.10;6.37;;;;;;;6.58;82.15;99444.72;3480915;28;20147;-57
2021/04/23 03:19:39;;;;;;;9.98;6.22;;;;;;;6.60;82.36;99449.91;3481356;28;20049;-57
2021/04/23 03:21:23;;;;;;;10.23;6.00;;;;;;;6.59;82.49;99443.00;3482250;28;20076;-57
2021/04/23 03:23:05;;;;;;;8.48;6.03;;;;;;;6.57;82.67;99447.25;3479062;28;20052;-57
2021/04/23 03:24:47;;;;;;;13.68;7.70;;;;;;;6.54;82.04;99447.16;3483371;28;20056;-57
2021/04/23 03:26:29;;;;;;;14.10;7.13;;;;;;;6.50;82.39;99448.78;3478826;28;20048;-49
2021/04/23 03:28:11;;;;;;;16.60;6.65;;;;;;;6.49;83.09;99441.91;3482527;28;20053;-47
2021/04/23 03:29:53;;;;;;;12.52;6.45;;;;;;;6.43;82.57;99459.78;3481174;28;20045;-46
2021/04/23 03:31:35;;;;;;;12.40;6.53;;;;;;;6.41;82.87;99456.28;3481329;28;20467;-57
2021/04/23 03:33:17;;;;;;;12.32;5.70;;;;;;;6.38;82.33;99456.19;3481846;28;20508;-57
2021/04/23 03:34:58;;;;;;;11.20;6.40;;;;;;;6.33;82.61;99456.09;3478534;28;20041;-57
2021/04/23 03:36:40;;;;;;;11.55;6.15;;;;;;;6.28;82.32;99463.69;3483273;28;20057;-57
2021/04/23 03:38:23;;;;;;;12.63;6.35;;;;;;;6.24;83.28;99461.88;3479690;28;20414;-57
2021/04/23 03:40:06;;;;;;;9.90;5.80;;;;;;;6.22;83.38;99463.50;3482422;28;20049;-46
2021/04/23 03:41:52;;;;;;;9.73;5.72;;;;;;;6.22;83.57;99467.78;3481304;28;20428;-45
2021/04/23 03:43:33;;;;;;;9.90;5.93;;;;;;;6.19;83.10;99470.25;3480382;28;20056;-48
2021/04/23 03:45:18;;;;;;;12.90;5.78;;;;;;;6.17;83.55;99470.25;3483365;28;20049;-46
2021/04/23 03:47:00;;;;;;;11.38;5.90;;;;;;;6.17;84.01;99475.41;3478361;28;20106;-46
2021/04/23 03:48:42;;;;;;;10.30;5.90;;;;;;;6.12;83.25;99470.09;3483214;28;20198;-45
2021/04/23 03:50:27;;;;;;;11.90;6.68;;;;;;;6.10;83.81;99474.34;3478429;28;20517;-46
2021/04/23 03:52:08;;;;;;;;;;;;;;;6.09;84.07;99472.59;3481894;28;20056;-46
2021/04/23 03:53:50;;;;;;;10.40;5.68;;;;;;;6.07;84.11;99473.38;3480484;28;19924;-57
2021/04/23 03:55:45;;;;;;;8.90;5.65;;;;;;;6.06;84.12;99475.06;3478465;28;20048;-54
2021/04/23 03:57:27;;;;;;;8.68;5.40;;;;;;;6.07;84.08;99478.53;3483123;28;20099;-52
2021/04/23 03:59:08;;;;;;;8.35;5.53;;;;;;;6.06;84.41;99472.50;3478554;28;20426;-56
2021/04/23 04:00:52;;;;;;;9.55;5.28;;;;;;;6.04;84.18;99484.47;3481000;28;20064;-49
2021/04/23 04:02:33;;;;;;;8.95;5.50;;;;;;;6.02;83.94;99480.09;3480798;28;20403;-48
2021/04/23 04:04:14;;;;;;;10.25;6.00;;;;;;;6.00;84.76;99485.22;3479793;28;20060;-48
2021/04/23 04:05:56;;;;;;;16.27;6.30;;;;;;;5.99;84.60;99477.44;3483117;28;20056;-48
2021/04/23 04:07:38;;;;;;;12.95;6.35;;;;;;;5.99;85.41;99482.59;3478368;28;20075;-55
2021/04/23 04:09:19;;;;;;;10.63;6.13;;;;;;;5.99;85.17;99485.16;3482845;28;20049;-55
2021/04/23 04:11:03;;;;;;;12.20;6.80;;;;;;;5.98;85.47;99486.88;3478009;28;20068;-53
2021/04/23 04:12:45;;;;;;;10.93;6.00;;;;;;;5.98;84.92;99486.88;3481427;28;20056;-54
2021/04/23 04:14:26;;;;;;;9.82;5.82;;;;;;;5.99;85.36;99485.16;3478722;28;20094;-52
2021/04/23 04:16:08;;;;;;;13.43;6.07;;;;;;;5.96;85.16;99487.63;3480563;28;20046;-55
2021/04/23 04:17:50;;;;;;;11.13;5.90;;;;;;;5.94;85.57;99479.88;3470032;28;20400;-53
2021/04/23 04:19:32;;;;;;;12.30;6.10;;;;;;;5.95;86.42;99486.78;3473904;28;20532;-48
2021/04/23 04:21:13;;;;;;;11.23;6.35;;;;;;;5.97;86.69;99484.25;3482889;28;20102;-47
2021/04/23 04:22:55;;;;;;;8.75;5.78;;;;;;;5.97;86.72;99485.13;3479331;28;20044;-48
2021/04/23 04:24:36;;;;;;;12.82;6.40;;;;;;;5.97;86.40;99486.81;3481979;28;20083;-49
2021/04/23 04:26:18;;;;;;;18.52;7.07;;;;;;;5.96;86.00;99482.50;3480510;28;20053;-50
2021/04/23 04:28:00;;;;;;;13.23;6.75;;;;;;;5.94;86.50;99483.34;3477649;28;20056;-49
2021/04/23 04:29:42;;;;;;;11.20;6.40;;;;;;;5.94;86.40;99491.06;3481479;28;20049;-49
2021/04/23 04:31:27;;;;;;;13.40;7.55;;;;;;;5.94;86.22;99482.44;3479190;28;20045;-53
2021/04/23 04:33:10;;;;;;;11.23;6.70;;;;;;;5.96;86.95;99496.25;3482611;28;20095;-51
2021/04/23 04:34:52;;;;;;;15.73;7.25;;;;;;;5.97;86.89;99489.41;3479129;28;20053;-52
2021/04/23 04:36:33;;;;;;;16.60;7.35;;;;;;;5.98;86.71;99493.69;3479169;28;20134;-51
2021/04/23 04:38:16;;;;;;;10.85;6.57;;;;;;;5.97;86.79;99489.41;3481128;28;20055;-53
2021/04/23 04:39:57;;;;;;;11.52;7.47;;;;;;;5.97;86.91;99490.25;3478127;28;20064;-50
2021/04/23 04:41:40;;;;;;;8.55;6.05;;;;;;;5.97;86.79;99494.53;3482637;28;20102;-48
2021/04/23 04:43:21;;;;;;;11.73;6.40;;;;;;;5.99;87.22;99491.19;3479183;28;20081;-49
2021/04/23 04:45:04;;;;;;;14.45;6.57;;;;;;;6.05;87.84;99495.66;3482498;28;20075;-50
2021/04/23 04:46:46;;;;;;;12.80;6.97;;;;;;;6.08;87.63;99499.19;3478267;28;20056;-59
2021/04/23 04:48:27;;;;;;;13.77;7.82;;;;;;;6.11;87.35;99495.81;3480834;28;20049;-59
2021/04/23 04:50:13;;;;;;;9.93;6.60;;;;;;;6.15;87.91;99501.94;3479687;28;20095;-59
2021/04/23 04:51:54;;;;;;;17.08;7.68;;;;;;;6.19;88.11;99504.66;3477708;28;20084;-59
2021/04/23 04:53:36;;;;;;;15.27;7.85;;;;;;;6.23;87.65;99501.31;3482721;28;20060;-59
2021/04/23 04:55:17;;;;;;;14.45;8.35;;;;;;;6.27;87.72;99505.72;3478921;28;20079;-59
2021/04/23 04:56:59;;;;;;;17.20;8.85;;;;;;;6.25;87.58;99499.66;3482533;28;20049;-49
2021/04/23 04:58:42;;;;;;;11.40;7.40;;;;;;;6.30;86.91;99504.94;3478454;28;20049;-48
2021/04/23 05:00:26;;;;;;;12.88;7.85;;;;;;;6.31;87.55;99505.00;3480453;28;20045;-50
2021/04/23 05:02:08;;;;;;;13.40;8.50;;;;;;;6.35;87.76;99510.22;3481410;28;20049;-50
2021/04/23 05:03:49;;;;;;;12.32;7.78;;;;;;;6.37;87.11;99508.56;3479156;28;20046;-53
2021/04/23 05:05:36;;;;;;;13.75;7.35;;;;;;;6.39;86.76;99514.63;3482441;28;20053;-52
2021/04/23 05:07:17;;;;;;;13.90;7.43;;;;;;;6.40;86.32;99516.38;3479039;28;20727;-52
2021/04/23 05:08:59;;;;;;;14.15;7.90;;;;;;;6.42;86.51;99523.31;3481859;28;20509;-49
2021/04/23 05:10:41;;;;;;;13.95;7.97;;;;;;;6.44;85.60;99518.22;3479539;28;20510;-58
2021/04/23 05:12:23;;;;;;;11.38;6.60;;;;;;;6.42;85.61;99514.72;3479309;28;20507;-59
2021/04/23 05:14:04;;;;;;;16.40;7.95;;;;;;;6.44;86.53;99510.47;3479960;28;20053;-50
2021/04/23 05:15:45;;;;;;;10.20;7.45;;;;;;;6.47;85.81;99507.97;3478750;28;20206;-50
2021/04/23 05:17:27;;;;;;;14.02;7.15;;;;;;;6.49;85.77;99507.19;3482374;28;20057;-50
2021/04/23 05:19:09;;;;;;;12.40;7.22;;;;;;;6.51;85.45;99502.94;3477720;28;20052;-58
2021/04/23 05:20:50;;;;;;;13.70;7.35;;;;;;;6.55;85.33;99509.06;3480822;28;20066;-58
2021/04/23 05:22:32;;;;;;;12.95;7.40;;;;;;;6.59;85.21;99508.31;3479016;28;20140;-58
2021/04/23 05:24:14;;;;;;;13.18;7.82;;;;;;;6.62;84.80;99500.66;3479359;28;20449;-58
2021/04/23 05:25:56;;;;;;;14.30;7.50;;;;;;;6.66;85.45;99502.47;3480731;28;20049;-58
2021/04/23 05:27:39;;;;;;;12.60;7.28;;;;;;;6.70;86.62;99506.91;3479828;28;20041;-58
2021/04/23 05:29:20;;;;;;;12.32;7.28;;;;;;;6.69;84.66;99505.13;3484939;28;20045;-47
2021/04/23 05:31:02;;;;;;;14.95;7.70;;;;;;;6.71;84.62;99505.19;3480011;28;20128;-47
2021/04/23 05:32:46;;;;;;;11.15;7.22;;;;;;;6.73;85.06;99502.66;3484320;28;20106;-48
2021/04/23 05:34:28;;;;;;;;;;;;;;;6.76;84.89;99507.91;3482531;28;20094;-50
2021/04/23 05:36:09;;;;;;;11.73;7.28;;;;;;;6.79;84.37;99502.81;3481135;28;19924;-49
2021/04/23 05:37:51;;;;;;;13.25;7.13;;;;;;;6.82;85.09;99508.03;3483991;28;20088;-57
2021/04/23 05:39:33;;;;;;;14.23;7.93;;;;;;;6.86;84.85;99504.72;3479735;28;20095;-58
2021/04/23 05:41:14;;;;;;;11.48;7.35;;;;;;;6.92;84.55;99504.88;3484441;28;20067;-58
2021/04/23 05:42:56;;;;;;;27.63;9.55;;;;;;;6.95;84.04;99510.13;3480925;28;20576;-57
2021/04/23 05:44:38;;;;;;;13.88;8.45;;;;;;;6.98;82.69;99507.66;3484256;28;20087;-58
2021/04/23 05:46:19;;;;;;;16.75;8.77;;;;;;;7.01;83.10;99518.03;3471193;28;20046;-58
2021/04/23 05:48:01;;;;;;;15.30;8.48;;;;;;;7.05;83.44;99519.88;3479853;28;20056;-57
2021/04/23 05:49:42;;;;;;;16.25;8.73;;;;;;;7.09;83.05;99515.66;3484276;28;20072;-57
2021/04/23 05:51:24;;;;;;;13.02;8.02;;;;;;;7.13;82.40;99516.63;3475981;28;20049;-57
2021/04/23 05:53:06;;;;;;;17.25;7.82;;;;;;;7.19;83.62;99520.19;3471002;28;20100;-58
2021/04/23 05:54:47;;;;;;;12.13;6.90;;;;;;;7.26;82.77;99523.81;3480106;28;20518;-57
2021/04/23 05:56:29;;;;;;;10.60;6.18;;;;;;;7.31;83.14;99514.47;3482279;28;20049;-58
2021/04/23 05:58:11;;;;;;;12.32;6.57;;;;;;;7.40;83.78;99519.84;3482929;28;20437;-58
2021/04/23 05:59:52;;;;;;;10.10;6.13;;;;;;;7.45;81.31;99525.13;3479725;28;20395;-57
2021/04/23 06:01:33;;;;;;;11.40;5.88;;;;;;;7.45;78.22;99517.38;3484384;28;20546;-49
2021/04/23 06:03:15;;;;;;;10.32;5.80;;;;;;;7.46;79.96;99521.72;3480673;28;20049;-57
2021/04/23 06:04:56;;;;;;;11.15;4.95;;;;;;;7.51;79.78;99517.53;3484187;28;20057;-57
2021/04/23 06:06:39;;;;;;;12.20;5.47;;;;;;;7.57;79.09;99527.13;3479798;28;20053;-57
2021/04/23 06:08:20;;;;;;;9.75;5.63;;;;;;;7.60;78.93;99520.34;3482333;28;20134;-58
2021/04/23 06:10:01;;;;;;;10.07;6.05;;;;;;;7.69;80.23;99534.25;3481688;28;20095;-57
2021/04/23 06:11:43;;;;;;;7.65;4.72;;;;;;;7.78;80.62;99530.19;3479611;28;20537;-57
2021/04/23 06:13:25;;;;;;;10.60;5.75;;;;;;;7.81;78.85;99526.81;3472568;28;20083;-58
2021/04/23 06:15:08;;;;;;;10.00;5.43;;;;;;;7.88;80.13;99533.84;3479624;28;20091;-48
2021/04/23 06:16:50;;;;;;;9.82;5.57;;;;;;;7.95;80.14;99535.75;3483893;28;20112;-48
2021/04/23 06:18:32;;;;;;;12.77;5.97;;;;;;;8.03;79.93;99535.91;3480262;28;20081;-50
2021/04/23 06:20:17;;;;;;;9.40;5.13;;;;;;;8.11;79.40;99538.66;3482054;28;20045;-49
2021/04/23 06:21:58;;;;;;;11.20;5.75;;;;;;;8.21;79.42;99536.28;3482142;28;20049;-50
2021/04/23 06:23:40;;;;;;;7.45;5.00;;;;;;;8.31;79.58;99539.94;3480666;28;20049;-45
2021/04/23 06:25:22;;;;;;;8.20;4.53;;;;;;;8.36;76.40;99542.63;3484414;28;20045;-58
2021/04/23 06:27:04;;;;;;;9.23;4.70;;;;;;;8.36;74.77;99546.09;3479432;28;20453;-48
2021/04/23 06:28:46;;;;;;;10.93;5.60;;;;;;;8.37;74.37;99539.19;3483155;28;20107;-49
2021/04/23 06:30:31;;;;;;;8.95;5.90;;;;;;;8.41;77.88;99540.97;3473182;28;20195;-48
2021/04/23 06:32:12;;;;;;;11.32;5.32;;;;;;;8.37;74.72;99539.19;3470611;28;20053;-48
2021/04/23 06:33:53;;;;;;;10.90;6.35;;;;;;;8.19;73.36;99534.53;3482564;28;20056;-58
2021/04/23 06:35:35;;;;;;;14.55;6.38;;;;;;;8.08;74.28;99538.59;3478458;28;20107;-58
2021/04/23 06:37:16;;;;;;;14.35;6.43;;;;;;;8.00;75.47;99541.00;3483718;28;20059;-58
2021/04/23 06:38:58;;;;;;;12.65;5.97;;;;;;;7.94;75.36;99546.91;3480634;28;20095;-47
2021/04/23 06:40:39;;;;;;;13.98;5.93;;;;;;;7.92;77.16;99543.44;3483580;28;20057;-58
2021/04/23 06:42:21;;;;;;;10.63;6.53;;;;;;;7.97;77.10;99540.91;3480814;28;20045;-57
2021/04/23 06:44:03;;;;;;;13.82;6.70;;;;;;;8.02;75.95;99541.91;3481129;28;20073;-58
2021/04/23 06:45:45;;;;;;;8.40;5.28;;;;;;;8.03;75.94;99541.06;3482464;28;20060;-58
2021/04/23 06:47:26;;;;;;;9.48;6.15;;;;;;;8.05;77.22;99547.13;3479081;28;20052;-48
2021/04/23 06:49:08;;;;;;;11.05;6.35;;;;;;;8.07;74.82;99539.44;3483810;28;20056;-49
2021/04/23 06:50:51;;;;;;;11.35;6.38;;;;;;;8.06;74.30;99546.31;3480241;28;20048;-47
2021/04/23 06:52:32;;;;;;;13.00;6.80;;;;;;;7.98;73.68;99547.84;3483262;28;20395;-48
2021/04/23 06:54:14;;;;;;;11.35;6.32;;;;;;;7.92;74.99;99543.44;3481012;28;20460;-57
2021/04/23 06:55:56;;;;;;;9.40;6.07;;;;;;;7.88;74.93;99545.91;3480898;28;20103;-57
2021/04/23 06:57:38;;;;;;;8.35;5.43;;;;;;;7.84;74.30;99550.13;3482312;28;20426;-58
2021/04/23 06:59:20;;;;;;;11.93;6.30;;;;;;;7.76;74.04;99551.63;3480488;28;20045;-58
2021/04/23 07:01:01;;;;;;;10.25;6.60;;;;;;;7.72;74.74;99545.53;3484038;28;20076;-47
2021/04/23 07:02:43;;;;;;;10.68;7.18;;;;;;;7.71;76.40;99541.22;3479010;28;20095;-48
2021/04/23 07:04:24;;;;;;;12.07;6.53;;;;;;;7.79;78.66;99543.97;3483804;28;20095;-58
2021/04/23 07:06:05;;;;;;;14.93;7.00;;;;;;;7.90;78.53;99546.78;3480593;28;20045;-57
2021/04/23 07:07:47;;;;;;;11.00;5.85;;;;;;;7.98;75.97;99551.28;3480208;28;20073;-58
2021/04/23 07:09:29;;;;;;;8.40;6.00;;;;;;;8.10;76.92;99539.50;3482521;28;20156;-58
2021/04/23 07:11:16;;;;;;;10.15;6.07;;;;;;;8.21;75.97;99543.16;3479051;28;20046;-57
2021/04/23 07:12:59;;;;;;;11.10;6.72;;;;;;;8.34;77.14;99555.53;3483611;28;20056;-57
2021/04/23 07:14:41;;;;;;;12.35;6.40;;;;;;;8.49;75.77;99559.25;3477490;28;20084;-57
2021/04/23 07:16:22;;;;;;;10.02;4.78;;;;;;;8.55;74.45;99560.25;3481420;28;20053;-47
2021/04/23 07:18:04;;;;;;;6.93;4.53;;;;;;;8.47;72.11;99555.78;3481088;28;20521;-48
2021/04/23 07:19:50;;;;;;;9.50;5.15;;;;;;;8.31;72.46;99554.59;3481209;28;20048;-51
2021/04/23 07:21:32;;;;;;;8.05;4.80;;;;;;;8.24;72.42;99558.75;3482818;28;20060;-48
2021/04/23 07:23:13;;;;;;;9.95;5.07;;;;;;;8.23;74.27;99561.28;3479873;28;20044;-48
2021/04/23 07:24:55;;;;;;;12.05;5.40;;;;;;;8.32;75.36;99556.31;3483459;28;20063;-47
2021/04/23 07:26:37;;;;;;;7.95;4.70;;;;;;;8.40;73.21;99559.94;3478955;28;20076;-47
2021/04/23 07:28:19;;;;;;;7.72;4.80;;;;;;;8.47;72.73;99555.78;3480701;28;20083;-48
2021/04/23 07:30:01;;;;;;;8.20;4.57;;;;;;;8.51;72.62;99553.25;3480640;28;20053;-47
2021/04/23 07:31:43;;;;;;;10.57;5.20;;;;;;;8.49;72.44;99554.94;3480132;28;20055;-58
2021/04/23 07:33:25;;;;;;;8.25;5.32;;;;;;;8.56;74.88;99556.81;3483439;28;20325;-58
2021/04/23 07:35:07;;;;;;;10.23;5.63;;;;;;;8.66;73.05;99550.13;3480611;28;20050;-47
2021/04/23 07:36:49;;;;;;;13.45;6.07;;;;;;;8.75;74.72;99555.47;3483022;28;20106;-47
2021/04/23 07:38:31;;;;;;;4.88;3.10;;;;;;;8.83;73.17;99553.00;3478733;28;20102;-47
2021/04/23 07:40:15;;;;;;;12.32;4.97;;;;;;;8.78;71.75;99557.22;3481416;28;20111;-47
2021/04/23 07:41:57;;;;;;;11.00;4.40;;;;;;;8.73;71.75;99562.31;3481615;28;20057;-50
2021/04/23 07:43:38;;;;;;;8.77;4.18;;;;;;;8.59;70.84;99559.47;3479908;28;21180;-47
2021/04/23 07:45:20;;;;;;;9.57;4.35;;;;;;;8.48;71.43;99557.50;3469800;28;20049;-57
2021/04/23 07:47:02;;;;;;;11.05;5.00;;;;;;;8.37;72.03;99557.28;3475913;28;20056;-58
2021/04/23 07:48:43;;;;;;;10.73;4.88;;;;;;;8.32;73.13;99549.44;3482923;28;20072;-57
2021/04/23 07:50:27;;;;;;;7.45;4.60;;;;;;;8.26;72.32;99553.63;3479143;28;20049;-57
2021/04/23 07:52:13;;;;;;;8.55;4.55;;;;;;;8.18;71.34;99549.16;3479605;28;20052;-46
2021/04/23 07:53:54;;;;;;;9.15;4.85;;;;;;;8.13;71.37;99543.03;3482158;28;20051;-46
2021/04/23 07:55:35;;;;;;;7.07;3.95;;;;;;;8.11;72.48;99547.28;3478707;28;20049;-55
2021/04/23 07:57:17;;;;;;;10.23;5.20;;;;;;;8.09;72.63;99546.34;3483071;28;20053;-56
2021/04/23 07:58:58;;;;;;;11.95;5.00;;;;;;;8.13;73.30;99555.03;3478090;28;20502;-57
2021/04/23 08:00:41;;;;;;;9.65;4.15;;;;;;;8.17;73.30;99552.56;3483167;28;20102;-56
2021/04/23 08:02:22;;;;;;;10.95;5.13;;;;;;;8.19;72.33;99550.03;3479979;28;20049;-55